createdAt,value
2023-04-12T00:00:12.709Z,72.59
2023-04-12T00:05:36.363Z,73.25
2023-04-12T00:10:39.197Z,73.50
2023-04-12T00:15:42.058Z,72.99
2023-04-12T00:20:44.972Z,72.61
2023-04-12T00:25:48.372Z,72.34
2023-04-12T00:30:51.317Z,72.03
2023-04-12T00:35:54.302Z,72.04
2023-04-12T00:40:57.561Z,72.19
2023-04-12T00:46:01.969Z,72.27
2023-04-12T00:51:07.425Z,72.41
2023-04-12T00:56:12.373Z,72.57
2023-04-12T01:01:17.250Z,72.58
2023-04-12T01:07:01.660Z,73.03
2023-04-12T01:12:26.598Z,72.62
2023-04-12T01:17:38.078Z,72.31
2023-04-12T01:23:28.507Z,71.90
2023-04-12T01:28:35.078Z,71.75
2023-04-12T01:33:40.859Z,72.00
2023-04-12T01:38:44.817Z,72.21
2023-04-12T01:43:48.757Z,72.15
2023-04-12T01:48:53.818Z,71.73
2023-04-12T01:54:11.273Z,71.89
2023-04-12T01:59:16.419Z,71.84
2023-04-12T02:04:21.199Z,72.06
2023-04-12T02:09:24.094Z,72.41
2023-04-12T02:14:27.155Z,72.27
2023-04-12T02:19:30.439Z,72.39
2023-04-12T02:24:33.628Z,72.66
2023-04-12T02:29:36.790Z,72.92
2023-04-12T02:34:39.923Z,73.07
2023-04-12T02:39:44.256Z,73.02
2023-04-12T02:44:48.013Z,72.71
2023-04-12T02:49:50.982Z,72.82
2023-04-12T02:54:54.323Z,72.84
2023-04-12T02:59:57.151Z,72.68
2023-04-12T03:04:59.978Z,72.67
2023-04-12T03:10:06.527Z,72.76
2023-04-12T03:15:10.115Z,72.77
2023-04-12T03:20:13.508Z,72.55
2023-04-12T03:25:18.652Z,72.71
2023-04-12T03:30:21.605Z,72.40
2023-04-12T03:35:24.514Z,72.03
2023-04-12T03:40:27.418Z,71.63
2023-04-12T03:45:30.502Z,71.67
2023-04-12T03:50:42.140Z,71.50
2023-04-12T03:55:44.964Z,71.40
2023-04-12T04:00:49.181Z,71.23
2023-04-12T04:05:52.166Z,71.46
2023-04-12T04:10:57.304Z,71.50
2023-04-12T04:16:06.856Z,71.32
2023-04-12T04:21:10.013Z,71.43
2023-04-12T04:26:13.892Z,71.33
2023-04-12T04:31:17.854Z,71.32
2023-04-12T04:36:20.911Z,71.31
2023-04-12T04:41:24.355Z,71.56
2023-04-12T04:46:30.539Z,71.73
2023-04-12T04:51:33.451Z,71.99
2023-04-12T04:56:36.384Z,72.18
2023-04-12T05:01:39.307Z,71.62
2023-04-12T05:06:42.173Z,71.41
2023-04-12T05:11:44.989Z,71.62
2023-04-12T05:16:47.834Z,71.64
2023-04-12T05:21:50.857Z,71.82
2023-04-12T05:26:53.698Z,72.24
2023-04-12T05:31:56.599Z,72.02
2023-04-12T05:37:00.015Z,72.09
2023-04-12T05:42:02.940Z,71.81
2023-04-12T05:47:06.133Z,71.63
2023-04-12T05:52:08.972Z,71.86
2023-04-12T05:57:12.559Z,72.25
2023-04-12T06:02:16.020Z,72.42
2023-04-12T06:07:19.671Z,71.92
2023-04-12T06:12:22.828Z,71.44
2023-04-12T06:17:25.695Z,71.56
2023-04-12T06:22:28.521Z,71.72
2023-04-12T06:27:31.684Z,71.49
2023-04-12T06:32:34.735Z,71.90
2023-04-12T06:37:37.591Z,72.01
2023-04-12T06:42:40.514Z,71.62
2023-04-12T06:47:43.381Z,71.51
2023-04-12T06:52:48.459Z,71.38
2023-04-12T06:57:52.255Z,71.57
2023-04-12T07:02:55.364Z,71.77
2023-04-12T07:07:58.284Z,71.63
2023-04-12T07:13:07.183Z,72.18
2023-04-12T07:18:10.230Z,72.55
2023-04-12T07:23:13.397Z,72.46
2023-04-12T07:28:19.061Z,72.65
2023-04-12T07:33:22.208Z,72.43
2023-04-12T07:38:25.142Z,72.72
2023-04-12T07:43:27.998Z,72.67
2023-04-12T07:48:31.356Z,72.17
2023-04-12T07:53:35.260Z,71.83
2023-04-12T07:58:38.205Z,71.67
2023-04-12T08:03:41.244Z,71.98
2023-04-12T08:08:44.822Z,71.87
2023-04-12T08:13:47.725Z,71.75
2023-04-12T08:18:50.951Z,71.21
2023-04-12T08:23:54.031Z,70.64
2023-04-12T08:28:58.420Z,70.36
2023-04-12T08:34:01.271Z,69.88
2023-04-12T08:39:04.235Z,69.88
2023-04-12T08:44:07.315Z,69.06
2023-04-12T08:49:11.475Z,69.21
2023-04-12T08:54:14.294Z,68.90
2023-04-12T08:59:17.197Z,68.95
2023-04-12T09:04:20.071Z,68.59
2023-04-12T09:10:01.560Z,69.32
2023-04-12T09:15:13.690Z,69.21
2023-04-12T09:20:16.633Z,68.05
2023-04-12T09:25:35.090Z,68.37
2023-04-12T09:30:42.534Z,68.13
2023-04-12T09:35:45.781Z,68.13
2023-04-12T09:40:50.243Z,67.61
2023-04-12T09:46:11.346Z,67.22
2023-04-12T09:51:14.466Z,67.38
2023-04-12T09:56:23.503Z,67.17
2023-04-12T10:01:26.521Z,67.13
2023-04-12T10:06:34.208Z,67.08
2023-04-12T10:11:41.834Z,66.58
2023-04-12T10:16:45.432Z,66.37
2023-04-12T10:21:48.267Z,65.62
2023-04-12T10:26:54.026Z,65.22
2023-04-12T10:32:23.380Z,65.57
2023-04-12T10:37:57.470Z,65.48
2023-04-12T10:43:18.821Z,65.24
2023-04-12T10:48:39.269Z,65.71
2023-04-12T10:53:42.263Z,65.83
2023-04-12T10:58:48.165Z,65.56
2023-04-12T11:04:13.258Z,65.67
2023-04-12T11:09:27.367Z,66.03
2023-04-12T11:14:47.466Z,66.05
2023-04-12T11:19:57.979Z,66.18
2023-04-12T11:25:03.223Z,66.48
2023-04-12T11:30:07.696Z,66.95
2023-04-12T11:35:10.634Z,66.07
2023-04-12T11:40:14.650Z,65.62
2023-04-12T11:45:21.620Z,65.90
2023-04-12T11:50:31.614Z,66.10
2023-04-12T11:55:34.875Z,65.74
2023-04-12T12:00:38.104Z,65.81
2023-04-12T12:05:42.935Z,65.38
2023-04-12T12:11:06.517Z,64.78
2023-04-12T12:16:12.330Z,63.95
2023-04-12T12:21:16.039Z,64.91
2023-04-12T12:26:25.780Z,64.51
2023-04-12T12:31:29.072Z,64.84
2023-04-12T12:36:34.420Z,64.46
2023-04-12T12:41:37.892Z,64.35
2023-04-12T12:46:53.546Z,64.43
2023-04-12T12:51:58.533Z,64.20
2023-04-12T12:57:02.088Z,63.55
2023-04-12T13:02:05.701Z,62.49
2023-04-12T13:07:08.705Z,62.20
2023-04-12T13:12:11.757Z,62.23
2023-04-12T13:17:15.985Z,61.98
2023-04-12T13:22:19.105Z,60.90
2023-04-12T13:27:22.225Z,60.75
2023-04-12T13:32:25.285Z,60.49
2023-04-12T13:37:28.099Z,60.49
2023-04-12T13:42:31.045Z,59.98
2023-04-12T13:47:36.505Z,60.60
2023-04-12T13:52:39.392Z,61.43
2023-04-12T13:57:42.254Z,61.53
2023-04-12T14:02:45.119Z,61.64
2023-04-12T14:07:49.905Z,61.83
2023-04-12T14:12:52.728Z,61.83
2023-04-12T14:17:55.932Z,62.19
2023-04-12T14:22:58.975Z,61.98
2023-04-12T14:28:01.816Z,61.70
2023-04-12T14:33:04.674Z,61.55
2023-04-12T14:38:08.956Z,61.13
2023-04-12T14:43:11.770Z,61.50
2023-04-12T14:48:14.577Z,61.43
2023-04-12T14:53:18.767Z,61.35
2023-04-12T14:58:21.755Z,61.32
2023-04-12T15:03:26.717Z,61.81
2023-04-12T15:08:29.860Z,61.19
2023-04-12T15:13:34.625Z,60.90
2023-04-12T15:18:39.448Z,60.40
2023-04-12T15:23:42.334Z,60.87
2023-04-12T15:28:45.172Z,60.53
2023-04-12T15:33:49.678Z,59.95
2023-04-12T15:38:54.386Z,59.77
2023-04-12T15:43:57.477Z,59.47
2023-04-12T15:49:01.504Z,59.77
2023-04-12T15:54:04.399Z,60.34
2023-04-12T15:59:09.172Z,60.17
2023-04-12T16:04:12.548Z,59.91
2023-04-12T16:09:16.760Z,59.62
2023-04-12T16:14:19.584Z,59.64
2023-04-12T16:19:22.645Z,59.79
2023-04-12T16:24:25.755Z,60.01
2023-04-12T16:29:29.077Z,60.32
2023-04-12T16:34:31.941Z,61.02
2023-04-12T16:39:40.914Z,61.02
2023-04-12T16:44:46.974Z,61.40
2023-04-12T16:49:50.045Z,61.28
2023-04-12T16:54:52.906Z,61.19
2023-04-12T16:59:55.945Z,61.40
2023-04-12T17:05:04.238Z,61.42
2023-04-12T17:10:08.285Z,61.37
2023-04-12T17:15:12.587Z,61.56
2023-04-12T17:20:17.572Z,61.63
2023-04-12T17:25:22.121Z,62.42
2023-04-12T17:30:28.756Z,62.64
2023-04-12T17:35:31.774Z,63.06
2023-04-12T17:40:34.700Z,63.17
2023-04-12T17:45:37.768Z,63.48
2023-04-12T17:50:45.784Z,63.64
2023-04-12T17:55:50.535Z,63.94
2023-04-12T18:00:53.774Z,64.03
2023-04-12T18:05:58.951Z,63.80
2023-04-12T18:11:02.321Z,64.07
2023-04-12T18:16:05.609Z,64.09
2023-04-12T18:21:08.509Z,64.36
2023-04-12T18:26:11.351Z,64.67
2023-04-12T18:31:14.801Z,65.09
2023-04-12T18:36:17.720Z,65.48
2023-04-12T18:41:20.753Z,65.52
2023-04-12T18:46:23.787Z,65.51
2023-04-12T18:51:26.694Z,65.48
2023-04-12T18:56:29.551Z,65.45
2023-04-12T19:01:32.364Z,65.76
2023-04-12T19:06:35.339Z,66.18
2023-04-12T19:11:38.190Z,66.32
2023-04-12T19:16:41.323Z,66.40
2023-04-12T19:21:44.222Z,66.37
2023-04-12T19:26:47.354Z,66.61
2023-04-12T19:31:53.822Z,66.51
2023-04-12T19:36:56.683Z,66.72
2023-04-12T19:41:59.697Z,66.82
2023-04-12T19:47:02.835Z,66.79
2023-04-12T19:52:05.755Z,66.97
2023-04-12T19:57:08.657Z,67.10
2023-04-12T20:02:11.644Z,67.42
2023-04-12T20:07:15.621Z,67.69
2023-04-12T20:12:19.504Z,67.72
2023-04-12T20:17:22.839Z,67.92
2023-04-12T20:22:28.876Z,67.47
2023-04-12T20:27:32.950Z,67.58
2023-04-12T20:32:36.075Z,67.72
2023-04-12T20:37:39.700Z,68.07
2023-04-12T20:42:42.632Z,68.21
2023-04-12T20:47:45.677Z,67.99
2023-04-12T20:52:50.046Z,67.49
2023-04-12T20:57:55.793Z,67.23
2023-04-12T21:02:58.890Z,67.59
2023-04-12T21:08:02.315Z,68.22
2023-04-12T21:13:05.150Z,68.08
2023-04-12T21:18:08.212Z,67.80
2023-04-12T21:23:13.583Z,67.80
2023-04-12T21:28:17.086Z,67.83
2023-04-12T21:33:24.639Z,67.68
2023-04-12T21:38:27.563Z,67.55
2023-04-12T21:43:30.498Z,67.52
2023-04-12T21:48:34.195Z,68.03
2023-04-12T21:53:37.122Z,67.61
2023-04-12T21:58:41.015Z,67.79
2023-04-12T22:03:45.045Z,67.79
2023-04-12T22:08:48.220Z,67.69
2023-04-12T22:13:51.066Z,67.86
2023-04-12T22:18:55.727Z,68.20
2023-04-12T22:23:58.886Z,68.26
2023-04-12T22:29:01.983Z,67.85
2023-04-12T22:34:06.086Z,67.37
2023-04-12T22:39:15.537Z,67.63
2023-04-12T22:44:22.554Z,67.14
2023-04-12T22:49:28.384Z,66.90
2023-04-12T22:54:31.399Z,67.00
2023-04-12T22:59:34.967Z,67.50
2023-04-12T23:04:37.837Z,67.79
2023-04-12T23:09:41.240Z,67.86
2023-04-12T23:14:44.989Z,67.59
2023-04-12T23:19:47.866Z,67.94
2023-04-12T23:24:51.007Z,68.34
2023-04-12T23:29:53.935Z,68.29
2023-04-12T23:34:56.715Z,68.05
2023-04-12T23:40:06.855Z,68.10
2023-04-12T23:45:10.916Z,67.76
2023-04-12T23:50:13.777Z,67.90
2023-04-12T23:55:17.202Z,67.86
